Time;durP1;ratioP1;P1;durP2;ratioP2;P2;SDS_P1;SDS_P2;PMS_P1;PMS_P2;Temp;Humidity;BMP_temperature;BMP_pressure;BME280_temperature;BME280_humidity;BME280_pressure;Samples;Min_cycle;Max_cycle;Signal;HPM_P1;HPM_P2
2023/09/13 00:00:52;;;;;;;5.85;5.35;;;;;;;;;;5031282;28;20024;-57
2023/09/13 00:03:18;;;;;;;7.72;5.65;;;;;;;;;;5031178;28;20056;-56
2023/09/13 00:05:46;;;;;;;5.68;5.20;;;;;;;;;;5031151;28;20013;-56
2023/09/13 00:08:12;;;;;;;6.32;5.72;;;;;;;;;;5031206;28;20040;-56
2023/09/13 00:10:38;;;;;;;5.93;4.95;;;;;;;;;;5031138;28;20056;-56
2023/09/13 00:13:04;;;;;;;5.93;5.43;;;;;;;;;;5031053;28;20103;-56
2023/09/13 00:15:30;;;;;;;5.57;5.07;;;;;;;;;;5031090;28;20022;-56
2023/09/13 00:17:56;;;;;;;6.43;5.50;;;;;;;;;;5031032;28;20029;-56
2023/09/13 00:20:22;;;;;;;6.95;5.63;;;;;;;;;;5030856;28;20053;-57
2023/09/13 00:22:48;;;;;;;5.90;5.40;;;;;;;;;;5031109;28;20033;-57
2023/09/13 00:25:14;;;;;;;6.80;5.53;;;;;;;;;;5031020;28;20044;-55
2023/09/13 00:27:40;;;;;;;6.18;5.45;;;;;;;;;;5031098;28;20116;-56
2023/09/13 00:30:08;;;;;;;5.75;5.13;;;;;;;;;;5031023;28;20483;-55
2023/09/13 00:32:35;;;;;;;6.97;5.57;;;;;;;;;;5030919;28;20037;-56
2023/09/13 00:35:01;;;;;;;7.18;5.80;;;;;;;;;;5013197;28;20486;-57
2023/09/13 00:37:26;;;;;;;6.70;5.70;;;;;;;;;;5031175;28;20079;-55
2023/09/13 00:39:53;;;;;;;6.55;5.63;;;;;;;;;;5031028;28;20039;-56
2023/09/13 00:42:18;;;;;;;5.97;5.38;;;;;;;;;;5030831;28;20487;-56
2023/09/13 00:44:44;;;;;;;6.75;6.07;;;;;;;;;;5030831;28;20072;-57
2023/09/13 00:47:12;;;;;;;6.10;5.50;;;;;;;;;;5030883;28;20364;-56
2023/09/13 00:49:38;;;;;;;6.10;5.50;;;;;;;;;;5025497;28;20025;-57
2023/09/13 00:52:05;;;;;;;5.88;5.38;;;;;;;;;;5034679;28;20103;-57
2023/09/13 00:54:31;;;;;;;7.53;6.07;;;;;;;;;;5034544;28;20112;-56
2023/09/13 00:56:57;;;;;;;7.63;5.82;;;;;;;;;;5034298;28;20089;-56
2023/09/13 00:59:24;;;;;;;6.53;5.93;;;;;;;;;;5032513;28;20056;-55
2023/09/13 01:01:50;;;;;;;6.68;5.68;;;;;;;;;;5021292;28;20014;-57
2023/09/13 01:04:16;;;;;;;7.35;5.72;;;;;;;;;;5034066;28;20030;-56
2023/09/13 01:06:42;;;;;;;6.32;5.43;;;;;;;;;;5033868;28;20024;-56
2023/09/13 01:09:08;;;;;;;5.82;5.32;;;;;;;;;;5033499;28;20029;-56
2023/09/13 01:11:34;;;;;;;6.82;6.22;;;;;;;;;;5033150;28;20052;-57
2023/09/13 01:14:00;;;;;;;6.13;5.60;;;;;;;;;;5033200;28;20037;-55
2023/09/13 01:16:40;;;;;;;6.22;5.65;;;;;;;;;;5034112;28;20026;-55
2023/09/13 01:19:25;;;;;;;5.97;5.47;;;;;;;;;;5033839;28;20033;-56
2023/09/13 01:21:51;;;;;;;6.07;5.57;;;;;;;;;;5033050;28;20208;-56
2023/09/13 01:24:42;;;;;;;7.22;6.47;;;;;;;;;;5032743;28;20432;-56
2023/09/13 01:27:22;;;;;;;6.32;5.72;;;;;;;;;;5032569;28;20033;-57
2023/09/13 01:29:50;;;;;;;6.45;5.85;;;;;;;;;;5032972;28;20139;-57
2023/09/13 01:32:16;;;;;;;8.25;6.00;;;;;;;;;;5019179;28;20049;-56
2023/09/13 01:34:42;;;;;;;6.20;5.70;;;;;;;;;;5032789;28;20388;-56
2023/09/13 01:37:08;;;;;;;7.00;6.20;;;;;;;;;;5033023;28;20054;-55
2023/09/13 01:39:34;;;;;;;6.18;5.63;;;;;;;;;;5032565;28;20037;-56
2023/09/13 01:42:05;;;;;;;6.63;6.03;;;;;;;;;;5032395;28;20022;-56
2023/09/13 01:44:31;;;;;;;6.90;5.70;;;;;;;;;;5032295;28;20457;-56
2023/09/13 01:46:57;;;;;;;6.57;5.88;;;;;;;;;;5032400;28;20032;-56
2023/09/13 01:49:25;;;;;;;6.28;5.72;;;;;;;;;;5032346;28;20072;-56
2023/09/13 01:51:51;;;;;;;8.10;5.43;;;;;;;;;;5032620;28;20493;-56
2023/09/13 01:54:20;;;;;;;6.60;5.95;;;;;;;;;;5032223;28;20360;-56
2023/09/13 01:56:46;;;;;;;6.10;5.50;;;;;;;;;;5030272;28;20033;-57
2023/09/13 01:59:12;;;;;;;6.60;5.60;;;;;;;;;;5030756;28;20021;-56
2023/09/13 02:01:38;;;;;;;6.72;5.85;;;;;;;;;;5012277;28;20040;-55
2023/09/13 02:04:06;;;;;;;6.57;6.07;;;;;;;;;;5032241;28;20037;-55
2023/09/13 02:06:32;;;;;;;6.25;5.38;;;;;;;;;;5032064;28;20029;-53
2023/09/13 02:08:57;;;;;;;6.05;5.55;;;;;;;;;;5027248;28;20021;-58
2023/09/13 02:11:24;;;;;;;8.40;5.75;;;;;;;;;;5029905;28;20167;-56
2023/09/13 02:13:50;;;;;;;6.78;6.18;;;;;;;;;;5030860;28;20032;-58
2023/09/13 02:16:20;;;;;;;6.75;6.00;;;;;;;;;;5030927;28;20155;-57
2023/09/13 02:18:46;;;;;;;6.45;5.63;;;;;;;;;;5032037;28;20161;-56
2023/09/13 02:21:12;;;;;;;6.57;5.97;;;;;;;;;;5031704;28;20060;-57
2023/09/13 02:23:41;;;;;;;6.40;5.90;;;;;;;;;;5031917;28;20026;-56
2023/09/13 02:26:07;;;;;;;7.05;6.45;;;;;;;;;;5032037;28;20053;-57
2023/09/13 02:28:33;;;;;;;8.38;5.70;;;;;;;;;;4997829;28;20375;-56
2023/09/13 02:30:59;;;;;;;7.85;6.25;;;;;;;;;;5014344;28;20041;-57
2023/09/13 02:33:25;;;;;;;6.57;5.68;;;;;;;;;;5032116;28;20034;-57
2023/09/13 02:35:51;;;;;;;6.80;6.20;;;;;;;;;;5013733;28;20017;-56
2023/09/13 02:38:17;;;;;;;7.45;5.70;;;;;;;;;;5030881;28;20479;-57
2023/09/13 02:40:44;;;;;;;6.03;5.53;;;;;;;;;;5032240;28;20053;-57
2023/09/13 02:43:10;;;;;;;6.68;5.97;;;;;;;;;;5032112;28;20018;-57
2023/09/13 02:45:36;;;;;;;6.88;5.97;;;;;;;;;;5032311;28;20021;-57
2023/09/13 02:48:02;;;;;;;7.20;5.63;;;;;;;;;;5032041;28;20430;-57
2023/09/13 02:50:28;;;;;;;8.23;6.53;;;;;;;;;;5032117;28;20067;-57
2023/09/13 02:52:54;;;;;;;7.20;6.00;;;;;;;;;;5032152;28;20052;-55
2023/09/13 02:55:20;;;;;;;7.35;6.18;;;;;;;;;;5031874;28;20020;-56
2023/09/13 02:57:46;;;;;;;7.82;6.45;;;;;;;;;;5032054;28;20033;-56
2023/09/13 03:00:13;;;;;;;8.20;6.20;;;;;;;;;;5031921;28;20022;-57
2023/09/13 03:02:39;;;;;;;9.77;6.10;;;;;;;;;;5031934;28;20048;-56
2023/09/13 03:05:06;;;;;;;7.55;6.55;;;;;;;;;;5031645;28;20040;-58
2023/09/13 03:07:32;;;;;;;7.63;5.90;;;;;;;;;;5031950;28;20475;-57
2023/09/13 03:09:58;;;;;;;9.68;6.43;;;;;;;;;;5031607;28;20048;-57
2023/09/13 03:12:40;;;;;;;7.18;6.47;;;;;;;;;;5031147;28;20067;-58
2023/09/13 03:15:06;;;;;;;6.72;6.13;;;;;;;;;;5031815;28;20065;-57
2023/09/13 03:17:32;;;;;;;7.05;6.32;;;;;;;;;;5031659;28;20029;-58
2023/09/13 03:19:58;;;;;;;9.15;6.97;;;;;;;;;;5031607;28;20384;-58
2023/09/13 03:22:24;;;;;;;7.80;6.55;;;;;;;;;;5031463;28;20057;-58
2023/09/13 03:24:50;;;;;;;8.32;7.03;;;;;;;;;;5031612;28;20025;-58
2023/09/13 03:27:17;;;;;;;7.43;6.80;;;;;;;;;;5031547;28;20124;-58
2023/09/13 03:29:43;;;;;;;6.72;6.03;;;;;;;;;;5031695;28;20044;-58
2023/09/13 03:32:09;;;;;;;7.90;6.78;;;;;;;;;;5031507;28;20025;-57
2023/09/13 03:34:37;;;;;;;8.80;6.35;;;;;;;;;;5013579;28;20391;-59
2023/09/13 03:37:03;;;;;;;8.55;7.68;;;;;;;;;;5031580;28;20018;-58
2023/09/13 03:39:31;;;;;;;7.43;6.80;;;;;;;;;;5031389;28;20059;-58
2023/09/13 03:41:57;;;;;;;7.57;6.88;;;;;;;;;;5031488;28;20029;-58
2023/09/13 03:44:23;;;;;;;8.13;7.32;;;;;;;;;;5031501;28;20153;-58
2023/09/13 03:46:49;;;;;;;8.35;7.47;;;;;;;;;;5031395;28;20028;-58
2023/09/13 03:49:15;;;;;;;7.97;7.18;;;;;;;;;;5031363;28;20026;-58
2023/09/13 03:51:41;;;;;;;7.63;6.75;;;;;;;;;;5026010;28;20041;-58
2023/09/13 03:54:07;;;;;;;9.18;7.07;;;;;;;;;;5024233;28;20029;-58
2023/09/13 03:56:33;;;;;;;7.60;6.85;;;;;;;;;;5031160;28;20026;-57
2023/09/13 03:58:59;;;;;;;9.80;7.57;;;;;;;;;;5031264;28;20491;-57
2023/09/13 04:01:26;;;;;;;8.75;7.93;;;;;;;;;;5031173;28;20041;-57
2023/09/13 04:03:52;;;;;;;8.55;7.50;;;;;;;;;;5031166;28;20044;-57
2023/09/13 04:06:18;;;;;;;8.73;7.45;;;;;;;;;;5031089;28;20443;-56
2023/09/13 04:08:44;;;;;;;8.80;7.90;;;;;;;;;;5031068;28;20513;-57
2023/09/13 04:11:10;;;;;;;9.10;8.30;;;;;;;;;;5031187;28;20018;-58
2023/09/13 04:13:36;;;;;;;9.70;8.45;;;;;;;;;;5030934;28;20041;-56
2023/09/13 04:16:03;;;;;;;8.98;7.82;;;;;;;;;;5031357;28;20364;-58
2023/09/13 04:18:29;;;;;;;9.90;8.85;;;;;;;;;;5013236;28;20095;-56
2023/09/13 04:20:55;;;;;;;9.68;8.73;;;;;;;;;;5030909;28;20432;-57
2023/09/13 04:23:21;;;;;;;9.52;8.55;;;;;;;;;;5016555;28;20502;-57
2023/09/13 04:25:47;;;;;;;12.63;9.05;;;;;;;;;;5034766;28;20157;-57
2023/09/13 04:28:13;;;;;;;8.93;8.02;;;;;;;;;;5034905;28;20030;-56
2023/09/13 04:30:38;;;;;;;8.73;7.93;;;;;;;;;;5034775;28;20030;-56
2023/09/13 04:33:07;;;;;;;8.25;7.55;;;;;;;;;;5034609;28;20120;-57
2023/09/13 04:35:33;;;;;;;9.30;8.40;;;;;;;;;;5034603;28;20068;-57
2023/09/13 04:37:59;;;;;;;9.63;8.70;;;;;;;;;;5034666;28;20029;-57
2023/09/13 04:40:25;;;;;;;12.00;8.63;;;;;;;;;;5016849;28;20049;-57
2023/09/13 04:42:55;;;;;;;8.57;7.72;;;;;;;;;;5034321;28;20052;-57
2023/09/13 04:45:22;;;;;;;9.90;8.77;;;;;;;;;;5034582;28;20452;-57
2023/09/13 04:47:48;;;;;;;9.90;8.63;;;;;;;;;;5034367;28;20028;-57
2023/09/13 04:50:14;;;;;;;9.55;8.65;;;;;;;;;;5034428;28;20101;-57
2023/09/13 04:52:40;;;;;;;9.50;7.97;;;;;;;;;;5034397;28;20147;-56
2023/09/13 04:55:06;;;;;;;9.07;8.27;;;;;;;;;;5034166;28;20029;-55
2023/09/13 04:57:32;;;;;;;8.68;7.85;;;;;;;;;;5034436;28;20029;-57
2023/09/13 04:59:58;;;;;;;9.65;7.82;;;;;;;;;;5034287;28;20447;-57
2023/09/13 05:02:24;;;;;;;9.43;8.30;;;;;;;;;;5034064;28;20040;-55
2023/09/13 05:04:50;;;;;;;8.48;7.78;;;;;;;;;;5033929;28;20027;-56
2023/09/13 05:07:16;;;;;;;8.20;7.40;;;;;;;;;;5034358;28;20025;-57
2023/09/13 05:09:43;;;;;;;8.75;7.90;;;;;;;;;;5033844;28;20025;-57
2023/09/13 05:12:09;;;;;;;8.60;7.90;;;;;;;;;;5033702;28;20022;-56
2023/09/13 05:14:36;;;;;;;9.43;7.80;;;;;;;;;;5034484;28;20091;-56
2023/09/13 05:17:02;;;;;;;8.13;7.25;;;;;;;;;;5033941;28;20053;-57
2023/09/13 05:19:28;;;;;;;8.40;7.60;;;;;;;;;;5034113;28;20136;-57
2023/09/13 05:21:54;;;;;;;8.68;7.82;;;;;;;;;;5033667;28;20483;-56
2023/09/13 05:24:20;;;;;;;10.02;8.32;;;;;;;;;;5034011;28;20010;-55
2023/09/13 05:26:46;;;;;;;9.45;7.47;;;;;;;;;;5033901;28;20029;-55
2023/09/13 05:29:12;;;;;;;8.52;7.72;;;;;;;;;;5015864;28;20013;-57
2023/09/13 05:31:38;;;;;;;9.23;7.88;;;;;;;;;;5015397;28;20040;-58
2023/09/13 05:34:04;;;;;;;8.35;7.22;;;;;;;;;;5028980;28;20076;-56
2023/09/13 05:36:30;;;;;;;9.80;7.22;;;;;;;;;;5030371;28;20040;-56
2023/09/13 05:38:56;;;;;;;7.65;6.95;;;;;;;;;;5031948;28;20033;-56
2023/09/13 05:41:23;;;;;;;10.68;7.55;;;;;;;;;;5031846;28;20087;-57
2023/09/13 05:43:49;;;;;;;12.15;8.27;;;;;;;;;;5033233;28;20022;-58
2023/09/13 05:46:16;;;;;;;10.55;8.13;;;;;;;;;;5033370;28;20020;-56
2023/09/13 05:48:42;;;;;;;9.45;8.52;;;;;;;;;;5033115;28;20037;-57
2023/09/13 05:51:08;;;;;;;8.95;8.07;;;;;;;;;;5033297;28;20025;-56
2023/09/13 05:53:34;;;;;;;9.95;8.20;;;;;;;;;;5033106;28;20091;-56
2023/09/13 05:56:00;;;;;;;9.98;7.82;;;;;;;;;;5033409;28;20095;-55
2023/09/13 05:58:26;;;;;;;9.60;8.70;;;;;;;;;;5033065;28;20753;-56
2023/09/13 06:00:54;;;;;;;9.65;8.65;;;;;;;;;;5032923;28;20022;-57
2023/09/13 06:03:20;;;;;;;10.88;7.65;;;;;;;;;;5033315;28;20379;-54
2023/09/13 06:05:52;;;;;;;8.48;7.60;;;;;;;;;;5032883;28;20025;-56
2023/09/13 06:08:18;;;;;;;11.35;8.45;;;;;;;;;;5033278;28;20048;-57
2023/09/13 06:10:45;;;;;;;10.32;8.98;;;;;;;;;;5015173;28;20390;-56
2023/09/13 06:13:11;;;;;;;9.32;8.43;;;;;;;;;;5032747;28;20036;-56
2023/09/13 06:15:37;;;;;;;11.10;8.68;;;;;;;;;;5014896;28;20063;-57
2023/09/13 06:18:03;;;;;;;9.35;8.38;;;;;;;;;;5032997;28;20423;-57
2023/09/13 06:20:29;;;;;;;10.63;9.55;;;;;;;;;;5032450;28;20475;-56
2023/09/13 06:22:55;;;;;;;10.65;8.23;;;;;;;;;;5032787;28;20024;-54
2023/09/13 06:25:21;;;;;;;11.95;8.77;;;;;;;;;;5032920;28;20022;-56
2023/09/13 06:27:47;;;;;;;9.43;8.50;;;;;;;;;;5032588;28;20026;-57
2023/09/13 06:30:13;;;;;;;10.40;9.40;;;;;;;;;;5032963;28;20025;-56
2023/09/13 06:32:40;;;;;;;10.23;9.20;;;;;;;;;;5032506;28;20061;-55
2023/09/13 06:35:09;;;;;;;9.63;8.73;;;;;;;;;;5032394;28;20013;-57
2023/09/13 06:37:35;;;;;;;10.60;9.57;;;;;;;;;;5032561;28;20064;-56
2023/09/13 06:40:03;;;;;;;13.43;9.18;;;;;;;;;;5032438;28;20028;-54
2023/09/13 06:42:29;;;;;;;12.25;9.68;;;;;;;;;;5032275;28;20037;-56
2023/09/13 06:44:54;;;;;;;13.82;9.65;;;;;;;;;;5014373;28;20017;-56
2023/09/13 06:47:21;;;;;;;11.75;8.38;;;;;;;;;;5032344;28;20052;-56
2023/09/13 06:49:47;;;;;;;9.73;7.90;;;;;;;;;;5031398;28;20022;-58
2023/09/13 06:52:13;;;;;;;9.60;8.75;;;;;;;;;;5032210;28;20025;-55
2023/09/13 06:54:39;;;;;;;9.23;8.30;;;;;;;;;;5032355;28;20124;-57
2023/09/13 06:57:08;;;;;;;16.27;8.07;;;;;;;;;;5031876;28;20021;-57
2023/09/13 06:59:34;;;;;;;10.68;8.27;;;;;;;;;;5032067;28;20558;-57
2023/09/13 07:02:00;;;;;;;10.07;8.80;;;;;;;;;;5032147;28;20751;-57
2023/09/13 07:04:26;;;;;;;10.40;8.05;;;;;;;;;;5032069;28;20021;-57
2023/09/13 07:06:52;;;;;;;11.73;8.32;;;;;;;;;;5032069;28;20025;-57
2023/09/13 07:09:18;;;;;;;9.32;8.00;;;;;;;;;;5032017;28;20025;-57
2023/09/13 07:11:44;;;;;;;10.15;7.93;;;;;;;;;;5031916;28;20418;-57
2023/09/13 07:14:10;;;;;;;10.32;8.70;;;;;;;;;;5031903;28;20035;-57
2023/09/13 07:16:37;;;;;;;14.05;9.15;;;;;;;;;;5032118;28;20021;-57
2023/09/13 07:19:03;;;;;;;11.25;8.82;;;;;;;;;;5014148;28;20364;-56
2023/09/13 07:21:29;;;;;;;12.05;10.00;;;;;;;;;;5031937;28;20080;-57
2023/09/13 07:23:55;;;;;;;13.38;10.00;;;;;;;;;;5031858;28;20455;-57
2023/09/13 07:26:23;;;;;;;14.05;9.18;;;;;;;;;;5031787;28;20450;-56
2023/09/13 07:28:49;;;;;;;14.80;9.75;;;;;;;;;;5032143;28;20150;-56
2023/09/13 07:31:15;;;;;;;16.77;9.98;;;;;;;;;;5032042;28;20021;-57
2023/09/13 07:33:41;;;;;;;11.63;9.85;;;;;;;;;;5031670;28;20112;-57
2023/09/13 07:36:07;;;;;;;14.55;9.77;;;;;;;;;;5031731;28;20113;-57
2023/09/13 07:38:34;;;;;;;12.43;9.38;;;;;;;;;;5031948;28;20025;-57
2023/09/13 07:41:00;;;;;;;11.63;10.43;;;;;;;;;;5031575;28;20100;-57
2023/09/13 07:43:27;;;;;;;13.43;10.25;;;;;;;;;;5031743;28;20026;-54
2023/09/13 07:45:53;;;;;;;12.48;10.82;;;;;;;;;;5031591;28;20107;-56
2023/09/13 07:48:19;;;;;;;18.92;10.35;;;;;;;;;;5031504;28;20043;-57
2023/09/13 07:50:45;;;;;;;13.75;10.00;;;;;;;;;;5031872;28;20034;-56
2023/09/13 07:53:13;;;;;;;19.30;12.93;;;;;;;;;;5026506;28;20049;-57
2023/09/13 07:55:39;;;;;;;14.45;12.30;;;;;;;;;;5031724;28;20030;-57
2023/09/13 07:58:06;;;;;;;19.08;12.75;;;;;;;;;;5034671;28;20129;-57
2023/09/13 08:00:32;;;;;;;22.27;15.77;;;;;;;;;;5035497;28;20093;-58
2023/09/13 08:03:02;;;;;;;15.48;13.82;;;;;;;;;;5035647;28;20079;-56
2023/09/13 08:05:28;;;;;;;19.17;15.35;;;;;;;;;;5031542;28;20028;-56
2023/09/13 08:07:54;;;;;;;18.33;14.02;;;;;;;;;;5017645;28;20100;-68
2023/09/13 08:10:22;;;;;;;16.20;14.05;;;;;;;;;;5035323;28;20382;-60
2023/09/13 08:12:49;;;;;;;17.63;14.52;;;;;;;;;;5035106;28;20029;-59
2023/09/13 08:15:15;;;;;;;16.60;14.55;;;;;;;;;;5029965;28;20498;-59
2023/09/13 08:17:42;;;;;;;18.17;15.63;;;;;;;;;;5021173;28;20486;-59
2023/09/13 08:20:08;;;;;;;19.38;17.48;;;;;;;;;;5034921;28;20029;-60
2023/09/13 08:22:35;;;;;;;20.83;17.23;;;;;;;;;;5035056;28;20025;-60
2023/09/13 08:25:01;;;;;;;19.35;17.40;;;;;;;;;;5035374;28;20391;-59
2023/09/13 08:27:27;;;;;;;19.40;17.50;;;;;;;;;;5034868;28;20368;-60
2023/09/13 08:29:53;;;;;;;22.30;18.10;;;;;;;;;;5035061;28;20040;-59
2023/09/13 08:32:19;;;;;;;18.77;16.65;;;;;;;;;;5034662;28;20112;-58
2023/09/13 08:34:45;;;;;;;20.33;18.13;;;;;;;;;;5034636;28;20033;-58
2023/09/13 08:37:12;;;;;;;19.45;16.90;;;;;;;;;;5031851;28;20527;-58
2023/09/13 08:39:38;;;;;;;17.17;15.23;;;;;;;;;;5034757;28;20079;-59
2023/09/13 08:42:04;;;;;;;18.13;15.75;;;;;;;;;;5034778;28;20030;-60
2023/09/13 08:44:31;;;;;;;15.90;13.75;;;;;;;;;;5034641;28;20022;-59
2023/09/13 08:46:58;;;;;;;16.77;13.90;;;;;;;;;;5034561;28;20030;-59
2023/09/13 08:49:25;;;;;;;18.63;14.15;;;;;;;;;;5034576;28;20177;-59
2023/09/13 08:51:52;;;;;;;15.80;14.07;;;;;;;;;;5034679;28;20017;-60
2023/09/13 08:54:18;;;;;;;14.60;13.13;;;;;;;;;;5034443;28;20120;-59
2023/09/13 08:56:45;;;;;;;16.85;15.05;;;;;;;;;;5032526;28;20026;-60
2023/09/13 08:59:18;;;;;;;17.42;15.57;;;;;;;;;;5014929;28;20021;-59
2023/09/13 09:01:47;;;;;;;17.08;14.18;;;;;;;;;;5032043;28;20446;-59
2023/09/13 09:04:14;;;;;;;16.02;14.23;;;;;;;;;;5030781;28;20056;-58
2023/09/13 09:06:40;;;;;;;17.33;15.63;;;;;;;;;;5032936;28;20041;-59
2023/09/13 09:09:07;;;;;;;15.20;13.80;;;;;;;;;;5032483;28;20025;-59
2023/09/13 09:11:33;;;;;;;15.73;14.20;;;;;;;;;;5016397;28;20029;-59
2023/09/13 09:14:00;;;;;;;15.43;13.95;;;;;;;;;;5033885;28;20065;-59
2023/09/13 09:16:27;;;;;;;16.95;14.15;;;;;;;;;;5034088;28;20026;-60
2023/09/13 09:18:57;;;;;;;14.65;13.35;;;;;;;;;;5034193;28;20455;-59
2023/09/13 09:21:23;;;;;;;17.30;13.68;;;;;;;;;;5033911;28;20122;-59
2023/09/13 09:23:50;;;;;;;24.50;17.27;;;;;;;;;;5033968;28;20033;-59
2023/09/13 09:26:16;;;;;;;24.45;18.17;;;;;;;;;;5032489;28;20018;-59
2023/09/13 09:28:43;;;;;;;43.50;24.17;;;;;;;;;;5025695;28;20398;-59
2023/09/13 09:31:10;;;;;;;26.63;23.83;;;;;;;;;;5015890;28;20109;-59
2023/09/13 09:33:38;;;;;;;28.88;25.08;;;;;;;;;;5033609;28;20041;-59
2023/09/13 09:36:04;;;;;;;31.60;26.58;;;;;;;;;;5033629;28;20064;-59
2023/09/13 09:38:30;;;;;;;28.05;23.65;;;;;;;;;;5033512;28;20029;-59
2023/09/13 09:41:06;;;;;;;28.65;25.65;;;;;;;;;;5033514;28;20416;-59
2023/09/13 09:43:33;;;;;;;25.40;22.83;;;;;;;;;;5033088;28;20025;-59
2023/09/13 09:45:59;;;;;;;25.20;22.63;;;;;;;;;;5033252;28;20105;-60
2023/09/13 09:48:27;;;;;;;24.30;21.75;;;;;;;;;;5033345;28;20028;-59
2023/09/13 09:50:53;;;;;;;24.88;21.63;;;;;;;;;;5033300;28;20052;-59
2023/09/13 09:53:23;;;;;;;23.92;21.73;;;;;;;;;;5033449;28;20382;-59
2023/09/13 09:55:50;;;;;;;26.48;23.75;;;;;;;;;;5033532;28;20501;-59
2023/09/13 09:58:17;;;;;;;28.55;25.75;;;;;;;;;;5015242;28;20029;-59
2023/09/13 10:00:50;;;;;;;39.83;35.35;;;;;;;;;;5033345;28;20511;-59
2023/09/13 10:03:20;;;;;;;29.80;26.93;;;;;;;;;;5033070;28;20419;-59
2023/09/13 10:05:53;;;;;;;26.02;23.48;;;;;;;;;;5014992;28;20431;-59
2023/09/13 10:08:19;;;;;;;23.43;21.30;;;;;;;;;;5015241;28;20025;-59
2023/09/13 10:10:45;;;;;;;21.05;18.80;;;;;;;;;;5015061;28;20460;-59
2023/09/13 10:13:14;;;;;;;21.15;18.98;;;;;;;;;;5022477;28;20069;-59
2023/09/13 10:15:41;;;;;;;18.88;17.08;;;;;;;;;;5032704;28;20046;-60
2023/09/13 10:18:07;;;;;;;19.63;17.33;;;;;;;;;;5032658;28;20037;-60
2023/09/13 10:20:34;;;;;;;18.35;16.65;;;;;;;;;;5032254;28;20075;-60
2023/09/13 10:23:02;;;;;;;18.15;16.27;;;;;;;;;;5014964;28;20363;-59
2023/09/13 10:25:30;;;;;;;16.92;15.32;;;;;;;;;;5032833;28;20017;-59
2023/09/13 10:27:58;;;;;;;17.02;15.32;;;;;;;;;;5032568;28;20474;-60
2023/09/13 10:30:27;;;;;;;16.50;14.93;;;;;;;;;;5032795;28;20025;-59
2023/09/13 10:32:57;;;;;;;16.08;14.60;;;;;;;;;;5014423;28;20030;-59
2023/09/13 10:35:24;;;;;;;16.42;14.93;;;;;;;;;;5014554;28;20502;-59
2023/09/13 10:37:53;;;;;;;18.75;15.68;;;;;;;;;;5032284;28;20494;-59
2023/09/13 10:40:20;;;;;;;15.60;14.20;;;;;;;;;;5014575;28;20430;-59
2023/09/13 10:42:46;;;;;;;15.65;14.20;;;;;;;;;;5028688;28;20470;-59
2023/09/13 10:45:17;;;;;;;17.00;15.38;;;;;;;;;;5032488;28;20057;-60
2023/09/13 10:47:43;;;;;;;16.13;14.43;;;;;;;;;;5024830;28;20022;-60
2023/09/13 10:50:09;;;;;;;16.73;14.95;;;;;;;;;;5032198;28;20049;-60
2023/09/13 10:52:36;;;;;;;16.45;14.95;;;;;;;;;;5031950;28;20351;-60
2023/09/13 10:55:06;;;;;;;16.33;14.55;;;;;;;;;;5031830;28;20052;-60
2023/09/13 10:57:32;;;;;;;16.50;14.75;;;;;;;;;;5032085;28;20375;-60
2023/09/13 10:59:59;;;;;;;17.60;14.07;;;;;;;;;;5031997;28;20447;-59
2023/09/13 11:02:26;;;;;;;16.58;14.88;;;;;;;;;;5031992;28;20017;-60
2023/09/13 11:04:52;;;;;;;16.77;15.10;;;;;;;;;;5031939;28;20438;-60
2023/09/13 11:07:18;;;;;;;18.38;16.08;;;;;;;;;;5032023;28;20053;-60
2023/09/13 11:09:45;;;;;;;16.90;14.95;;;;;;;;;;5032192;28;20036;-60
2023/09/13 11:12:12;;;;;;;17.05;15.35;;;;;;;;;;5031940;28;20061;-60
2023/09/13 11:14:43;;;;;;;17.88;14.57;;;;;;;;;;5013905;28;20037;-60
2023/09/13 11:17:11;;;;;;;15.20;13.73;;;;;;;;;;5032093;28;20029;-61
2023/09/13 11:19:37;;;;;;;19.88;16.98;;;;;;;;;;5031919;28;20061;-60
2023/09/13 11:22:04;;;;;;;17.00;15.50;;;;;;;;;;5013833;28;20041;-60
2023/09/13 11:24:43;;;;;;;17.27;15.55;;;;;;;;;;5031829;28;20030;-60
2023/09/13 11:27:12;;;;;;;16.77;15.02;;;;;;;;;;5032043;28;20067;-60
2023/09/13 11:29:42;;;;;;;16.17;14.48;;;;;;;;;;5031688;28;20036;-60
2023/09/13 11:32:16;;;;;;;17.15;15.52;;;;;;;;;;5031133;28;20114;-60
2023/09/13 11:34:42;;;;;;;16.17;14.68;;;;;;;;;;5031569;28;20084;-60
2023/09/13 11:37:08;;;;;;;15.40;13.90;;;;;;;;;;5031997;28;20105;-60
2023/09/13 11:39:34;;;;;;;14.98;13.48;;;;;;;;;;5031614;28;20029;-60
2023/09/13 11:42:04;;;;;;;15.10;13.35;;;;;;;;;;5031597;28;20448;-60
2023/09/13 11:44:30;;;;;;;14.88;13.45;;;;;;;;;;5031537;28;20042;-60
2023/09/13 11:46:56;;;;;;;14.55;13.13;;;;;;;;;;5031694;28;20387;-60
2023/09/13 11:49:23;;;;;;;13.75;12.63;;;;;;;;;;5013749;28;20026;-60
2023/09/13 11:51:57;;;;;;;14.43;13.02;;;;;;;;;;5031562;28;20518;-60
2023/09/13 11:54:23;;;;;;;;;;;;;;;;;;5031840;28;20080;-60
2023/09/13 11:56:51;;;;;;;14.40;12.88;;;;;;;;;;5031623;28;19915;-60
2023/09/13 11:59:18;;;;;;;12.20;11.10;;;;;;;;;;5031411;28;20447;-60
2023/09/13 12:01:45;;;;;;;11.55;10.55;;;;;;;;;;5013707;28;20022;-60
2023/09/13 12:04:11;;;;;;;11.38;10.32;;;;;;;;;;5013714;28;20380;-60
2023/09/13 12:06:43;;;;;;;13.23;12.02;;;;;;;;;;5031352;28;20041;-60
2023/09/13 12:09:19;;;;;;;11.98;10.98;;;;;;;;;;5031418;28;20022;-60
2023/09/13 12:11:49;;;;;;;12.35;11.10;;;;;;;;;;5031415;28;20128;-60
2023/09/13 12:14:15;;;;;;;11.52;10.57;;;;;;;;;;5031300;28;20022;-60
2023/09/13 12:16:42;;;;;;;11.95;10.85;;;;;;;;;;5031451;28;20103;-60
2023/09/13 12:19:10;;;;;;;13.57;12.15;;;;;;;;;;5031221;28;20513;-60
2023/09/13 12:21:36;;;;;;;13.00;11.80;;;;;;;;;;5031174;28;20388;-60
2023/09/13 12:24:02;;;;;;;15.00;12.05;;;;;;;;;;5031396;28;20459;-60
2023/09/13 12:26:28;;;;;;;12.60;11.60;;;;;;;;;;5031428;28;20027;-60
2023/09/13 12:28:56;;;;;;;12.55;11.27;;;;;;;;;;5028865;28;20430;-60
2023/09/13 12:31:22;;;;;;;13.38;11.98;;;;;;;;;;5030603;28;20215;-59
2023/09/13 12:33:49;;;;;;;12.82;11.82;;;;;;;;;;5029060;28;20068;-60
2023/09/13 12:36:15;;;;;;;12.52;11.43;;;;;;;;;;5014001;28;20025;-60
2023/09/13 12:38:41;;;;;;;11.98;10.75;;;;;;;;;;5031184;28;20082;-60
2023/09/13 12:41:07;;;;;;;12.35;11.25;;;;;;;;;;5031133;28;20029;-60
2023/09/13 12:43:35;;;;;;;11.15;10.15;;;;;;;;;;5029791;28;20033;-60
2023/09/13 12:46:02;;;;;;;10.68;9.80;;;;;;;;;;5034776;28;20022;-60
2023/09/13 12:48:28;;;;;;;10.40;9.40;;;;;;;;;;5034536;28;20112;-60
2023/09/13 12:50:55;;;;;;;10.82;9.98;;;;;;;;;;5034911;28;20017;-59
2023/09/13 12:53:23;;;;;;;9.63;8.77;;;;;;;;;;5034626;28;20097;-60
2023/09/13 12:55:50;;;;;;;9.65;8.85;;;;;;;;;;5035043;28;20028;-59
2023/09/13 12:58:16;;;;;;;10.20;8.98;;;;;;;;;;5016812;28;20032;-60
2023/09/13 13:00:52;;;;;;;10.05;9.35;;;;;;;;;;5034497;28;20025;-60
2023/09/13 13:03:19;;;;;;;9.70;8.90;;;;;;;;;;5034769;28;20020;-60
2023/09/13 13:05:48;;;;;;;9.60;8.70;;;;;;;;;;5034463;28;20045;-59
2023/09/13 13:08:14;;;;;;;8.70;7.88;;;;;;;;;;5034345;28;20472;-59
2023/09/13 13:11:00;;;;;;;8.23;7.50;;;;;;;;;;5016835;28;20038;-59
2023/09/13 13:13:33;;;;;;;8.18;7.45;;;;;;;;;;5021126;28;20038;-61
2023/09/13 13:16:00;;;;;;;8.30;7.60;;;;;;;;;;5034343;28;20388;-60
2023/09/13 13:18:26;;;;;;;8.50;7.80;;;;;;;;;;5034139;28;20108;-60
2023/09/13 13:20:52;;;;;;;7.65;7.03;;;;;;;;;;5034197;28;20049;-60
2023/09/13 13:23:18;;;;;;;8.98;8.27;;;;;;;;;;5034009;28;20117;-60
2023/09/13 13:25:44;;;;;;;8.30;7.68;;;;;;;;;;5034171;28;20423;-60
2023/09/13 13:28:14;;;;;;;8.10;7.50;;;;;;;;;;5034270;28;20053;-60
2023/09/13 13:30:40;;;;;;;7.80;7.20;;;;;;;;;;5034493;28;20032;-60
2023/09/13 13:33:06;;;;;;;8.73;7.75;;;;;;;;;;5016021;28;20113;-60
2023/09/13 13:35:33;;;;;;;8.45;7.63;;;;;;;;;;5034270;28;20025;-59
2023/09/13 13:37:59;;;;;;;9.05;7.50;;;;;;;;;;5034030;28;20025;-59
2023/09/13 13:40:25;;;;;;;8.48;7.55;;;;;;;;;;5033787;28;20022;-59
2023/09/13 13:42:51;;;;;;;11.00;9.57;;;;;;;;;;5033772;28;20034;-60
2023/09/13 13:45:17;;;;;;;9.07;8.35;;;;;;;;;;5033756;28;20093;-60
2023/09/13 13:47:45;;;;;;;9.18;8.40;;;;;;;;;;5015890;28;20037;-60
2023/09/13 13:50:11;;;;;;;7.53;6.93;;;;;;;;;;5034044;28;20451;-60
2023/09/13 13:52:37;;;;;;;7.85;7.20;;;;;;;;;;5033595;28;20079;-60
2023/09/13 13:55:03;;;;;;;8.25;7.50;;;;;;;;;;5033067;28;20130;-60
2023/09/13 13:57:38;;;;;;;7.72;7.13;;;;;;;;;;5029545;28;20541;-60
2023/09/13 14:00:04;;;;;;;7.95;7.32;;;;;;;;;;5033564;28;20100;-60
2023/09/13 14:02:36;;;;;;;7.43;6.82;;;;;;;;;;5033501;28;20021;-61
2023/09/13 14:05:03;;;;;;;8.32;7.72;;;;;;;;;;5033882;28;20447;-60
2023/09/13 14:07:29;;;;;;;8.10;7.30;;;;;;;;;;5033236;28;20055;-60
2023/09/13 14:09:55;;;;;;;7.60;7.03;;;;;;;;;;5033023;28;20040;-59
2023/09/13 14:12:21;;;;;;;7.88;7.18;;;;;;;;;;5032852;28;20030;-60
2023/09/13 14:14:47;;;;;;;8.38;7.60;;;;;;;;;;5033064;28;20034;-60
2023/09/13 14:17:13;;;;;;;8.13;7.43;;;;;;;;;;5033075;28;20115;-60
2023/09/13 14:19:40;;;;;;;8.02;7.43;;;;;;;;;;5015036;28;20117;-60
2023/09/13 14:22:06;;;;;;;8.13;7.43;;;;;;;;;;5032701;28;20120;-60
2023/09/13 14:24:32;;;;;;;6.82;6.32;;;;;;;;;;5033137;28;20403;-60
2023/09/13 14:26:58;;;;;;;7.82;7.18;;;;;;;;;;5032669;28;20486;-60
2023/09/13 14:29:24;;;;;;;8.32;7.47;;;;;;;;;;5032527;28;20033;-61
2023/09/13 14:31:55;;;;;;;8.48;7.28;;;;;;;;;;5032474;28;20040;-60